Time;durP1;ratioP1;P1;durP2;ratioP2;P2;SDS_P1;SDS_P2;PMS_P1;PMS_P2;Temp;Humidity;BMP_temperature;BMP_pressure;BME280_temperature;BME280_humidity;BME280_pressure;Samples;Min_cycle;Max_cycle;Signal;HPM_P1;HPM_P2
2022/08/04 00:00:11;;;;;;;9.13;3.47;;;18.10;99.90;;;;;;5074451;28;20036;-57
2022/08/04 00:02:56;;;;;;;8.48;3.30;;;18.10;99.90;;;;;;5075460;28;20043;-57
2022/08/04 00:05:37;;;;;;;12.13;3.58;;;18.00;99.90;;;;;;5076095;28;20415;-57
2022/08/04 00:08:33;;;;;;;11.45;3.45;;;18.10;99.90;;;;;;5091487;28;20058;-57
2022/08/04 00:11:00;;;;;;;8.60;3.50;;;18.00;99.90;;;;;;5074391;28;20512;-57
2022/08/04 00:13:29;;;;;;;14.98;3.50;;;18.20;99.90;;;;;;5075096;28;20040;-57
2022/08/04 00:16:06;;;;;;;10.13;3.65;;;18.20;99.90;;;;;;5076056;28;20142;-57
2022/08/04 00:18:49;;;;;;;13.93;3.30;;;18.10;99.90;;;;;;5074733;28;20056;-57
2022/08/04 00:21:18;;;;;;;10.00;3.78;;;18.80;99.90;;;;;;5073531;28;20119;-57
2022/08/04 00:23:47;;;;;;;11.43;3.20;;;18.00;99.90;;;;;;5075174;28;20035;-56
2022/08/04 00:26:16;;;;;;;9.07;2.90;;;19.60;99.90;;;;;;5073343;28;20036;-57
2022/08/04 00:28:42;;;;;;;8.35;3.30;;;18.10;99.90;;;;;;5074463;28;20214;-57
2022/08/04 00:31:10;;;;;;;11.32;3.22;;;19.10;99.90;;;;;;5074544;28;20052;-56
2022/08/04 00:33:37;;;;;;;10.43;3.45;;;18.20;99.90;;;;;;5072582;28;20051;-56
2022/08/04 00:36:04;;;;;;;8.63;3.40;;;18.20;99.90;;;;;;5073386;28;20040;-56
2022/08/04 00:38:30;;;;;;;9.77;2.92;;;18.30;99.90;;;;;;5088940;28;20047;-56
2022/08/04 00:41:38;;;;;;;15.23;3.67;;;19.40;99.90;;;;;;5073617;28;20059;-56
2022/08/04 00:44:28;;;;;;;10.55;3.25;;;18.20;99.90;;;;;;5033645;28;20531;-57
2022/08/04 00:47:39;;;;;;;7.38;2.97;;;18.20;99.90;;;;;;5051642;28;20086;-56
2022/08/04 00:50:08;;;;;;;9.85;3.35;;;18.00;99.90;;;;;;5010744;28;20045;-57
2022/08/04 00:52:54;;;;;;;10.88;3.35;;;17.80;99.90;;;;;;5010993;28;20145;-57
2022/08/04 00:55:37;;;;;;;8.23;2.90;;;19.10;99.90;;;;;;5011492;28;20132;-56
2022/08/04 00:58:25;;;;;;;10.55;3.25;;;18.10;99.90;;;;;;5010524;28;20045;-55
2022/08/04 01:01:03;;;;;;;14.85;3.50;;;19.10;99.90;;;;;;5010543;28;20632;-57
2022/08/04 01:03:44;;;;;;;10.05;3.60;;;18.00;99.90;;;;;;5011270;28;20041;-56
2022/08/04 01:06:15;;;;;;;8.82;3.40;;;18.30;99.90;;;;;;5010412;28;20037;-57
2022/08/04 01:09:14;;;;;;;8.82;3.50;;;18.50;99.90;;;;;;5009639;28;20057;-57
2022/08/04 01:11:58;;;;;;;13.45;3.75;;;17.70;99.90;;;;;;4952724;28;20058;-57
2022/08/04 01:14:51;;;;;;;8.88;3.60;;;18.60;99.90;;;;;;4952012;28;20058;-57
2022/08/04 01:17:34;;;;;;;10.13;3.88;;;17.70;99.90;;;;;;4951862;28;20051;-56
2022/08/04 01:20:15;;;;;;;12.52;3.97;;;17.70;99.90;;;;;;4951825;28;20558;-57
2022/08/04 01:22:41;;;;;;;8.50;3.25;;;17.80;99.90;;;;;;4933917;28;20058;-57
2022/08/04 01:25:36;;;;;;;10.45;4.18;;;17.70;99.90;;;;;;4932627;29;20536;-57
2022/08/04 01:28:23;;;;;;;12.70;3.72;;;17.60;99.90;;;;;;5011738;28;20132;-55
2022/08/04 01:30:55;;;;;;;10.50;3.28;;;17.40;99.90;;;;;;5011267;28;20052;-57
2022/08/04 01:33:22;;;;;;;12.32;3.70;;;17.50;99.90;;;;;;5011367;28;20974;-55
2022/08/04 01:35:54;;;;;;;12.00;3.53;;;17.60;99.90;;;;;;5009443;28;20061;-56
2022/08/04 01:38:36;;;;;;;8.40;3.45;;;19.70;99.90;;;;;;5010104;28;20038;-54
2022/08/04 01:41:07;;;;;;;10.90;3.17;;;17.50;99.90;;;;;;5009411;28;20084;-57
2022/08/04 01:43:38;;;;;;;11.20;3.60;;;17.70;99.90;;;;;;5008227;28;20280;-56
2022/08/04 01:46:04;;;;;;;9.07;3.33;;;17.70;99.90;;;;;;5009238;28;20041;-56
2022/08/04 01:48:30;;;;;;;10.02;3.53;;;17.60;99.90;;;;;;5040054;28;20048;-56
2022/08/04 01:50:58;;;;;;;12.55;3.78;;;17.50;99.90;;;;;;5073987;28;20032;-56
2022/08/04 01:53:33;;;;;;;14.65;4.10;;;17.70;99.90;;;;;;5073205;28;20062;-57
2022/08/04 01:56:01;;;;;;;8.65;3.63;;;17.80;99.90;;;;;;5073854;28;20099;-56
2022/08/04 01:58:32;;;;;;;12.40;4.55;;;17.80;99.90;;;;;;5077471;28;20093;-57
2022/08/04 02:01:11;;;;;;;9.52;3.75;;;17.80;99.90;;;;;;5078028;28;20036;-56
2022/08/04 02:03:40;;;;;;;9.70;3.47;;;18.00;99.90;;;;;;5076281;28;20048;-56
2022/08/04 02:06:56;;;;;;;10.50;4.38;;;18.10;99.90;;;;;;5076640;28;20036;-56
2022/08/04 02:09:32;;;;;;;11.63;4.88;;;18.00;99.90;;;;;;5077074;28;20040;-57
2022/08/04 02:12:13;;;;;;;12.98;4.57;;;17.90;99.90;;;;;;5077343;28;20118;-56
2022/08/04 02:15:06;;;;;;;11.33;4.97;;;18.00;99.90;;;;;;5077227;28;20101;-56
2022/08/04 02:18:14;;;;;;;18.30;5.75;;;18.10;99.90;;;;;;5073826;28;20289;-57
2022/08/04 02:20:45;;;;;;;9.15;4.43;;;18.10;99.90;;;;;;5085988;28;20071;-57
2022/08/04 02:23:19;;;;;;;14.60;5.28;;;19.60;99.90;;;;;;5077352;28;20050;-57
2022/08/04 02:25:56;;;;;;;11.48;4.28;;;18.90;99.90;;;;;;5075990;28;20047;-57
2022/08/04 02:28:45;;;;;;;11.05;4.88;;;18.10;99.90;;;;;;5076209;28;20044;-56
2022/08/04 02:31:20;;;;;;;11.18;4.90;;;18.00;99.90;;;;;;5076115;28;21497;-57
2022/08/04 02:34:12;;;;;;;11.40;5.30;;;17.80;99.90;;;;;;5075699;28;20043;-57
2022/08/04 02:36:41;;;;;;;14.07;5.32;;;17.90;99.90;;;;;;5076457;28;20131;-57
2022/08/04 02:39:09;;;;;;;10.10;5.18;;;18.00;99.90;;;;;;5075973;28;20564;-56
2022/08/04 02:41:37;;;;;;;10.95;5.85;;;17.90;99.90;;;;;;5076036;28;20126;-57
2022/08/04 02:44:13;;;;;;;14.00;4.90;;;17.90;99.90;;;;;;5073815;28;20458;-56
2022/08/04 02:46:40;;;;;;;13.20;5.25;;;18.20;99.90;;;;;;5075495;28;20047;-55
2022/08/04 02:49:08;;;;;;;13.43;5.57;;;18.00;99.90;;;;;;5076643;28;20126;-55
2022/08/04 02:51:39;;;;;;;11.85;5.22;;;18.80;99.90;;;;;;5075044;28;20408;-56
2022/08/04 02:54:07;;;;;;;13.82;4.85;;;17.90;99.90;;;;;;5075961;28;20044;-57
2022/08/04 02:56:34;;;;;;;15.75;5.20;;;18.00;99.90;;;;;;5075570;28;20032;-57
2022/08/04 02:59:02;;;;;;;9.63;4.78;;;18.00;99.90;;;;;;5076046;28;20040;-60
2022/08/04 03:01:28;;;;;;;10.73;5.15;;;17.80;99.90;;;;;;5074673;28;20036;-57
2022/08/04 03:04:26;;;;;;;10.23;5.43;;;17.70;99.90;;;;;;5076069;28;20556;-56
2022/08/04 03:07:16;;;;;;;12.43;5.63;;;18.10;99.90;;;;;;5035404;28;20340;-57
2022/08/04 03:09:44;;;;;;;14.25;5.13;;;17.80;99.90;;;;;;5034114;28;20028;-57
2022/08/04 03:12:29;;;;;;;13.00;5.03;;;17.90;99.90;;;;;;5051674;28;20049;-56
2022/08/04 03:15:32;;;;;;;11.45;5.60;;;17.90;99.90;;;;;;5052622;28;20044;-57
2022/08/04 03:18:23;;;;;;;13.65;5.70;;;18.00;99.90;;;;;;4973632;28;20303;-56
2022/08/04 03:20:54;;;;;;;14.43;5.13;;;17.80;99.90;;;;;;4972806;28;21275;-57
2022/08/04 03:23:47;;;;;;;11.27;5.25;;;17.90;99.90;;;;;;4957785;28;20046;-57
2022/08/04 03:26:48;;;;;;;10.23;4.80;;;17.70;99.90;;;;;;4971462;28;20065;-58
2022/08/04 03:29:16;;;;;;;10.60;5.28;;;17.80;99.90;;;;;;4916281;29;20600;-57
2022/08/04 03:32:00;;;;;;;10.43;5.60;;;17.80;99.90;;;;;;4915271;29;20579;-55
2022/08/04 03:34:45;;;;;;;20.23;5.22;;;17.80;99.90;;;;;;4915647;29;20051;-57
2022/08/04 03:37:47;;;;;;;12.15;5.20;;;17.80;99.90;;;;;;4916192;29;20580;-57
2022/08/04 03:40:27;;;;;;;14.80;5.40;;;17.70;99.90;;;;;;4842135;29;20052;-56
2022/08/04 03:43:15;;;;;;;14.05;5.85;;;17.80;99.90;;;;;;4853066;29;20045;-56
2022/08/04 03:46:17;;;;;;;10.07;5.07;;;17.60;99.90;;;;;;4878319;29;20060;-56
2022/08/04 03:49:20;;;;;;;12.70;5.20;;;17.70;99.90;;;;;;4880907;29;20060;-56
2022/08/04 03:55:16;;;;;;;8.88;4.95;;;17.80;99.90;;;;;;4899756;28;20146;-56
2022/08/04 03:57:52;;;;;;;15.63;5.22;;;17.70;99.90;;;;;;4936154;28;20044;-56
2022/08/04 04:00:39;;;;;;;15.52;6.28;;;17.50;99.90;;;;;;4935001;28;20603;-56
2022/08/04 04:03:38;;;;;;;10.07;5.18;;;17.60;99.90;;;;;;4934160;28;20284;-56
2022/08/04 04:06:19;;;;;;;11.15;5.38;;;17.90;99.90;;;;;;4961581;28;20469;-56
2022/08/04 04:09:06;;;;;;;16.30;5.10;;;19.70;99.90;;;;;;4992560;28;20829;-56
2022/08/04 04:11:49;;;;;;;10.13;5.18;;;17.90;99.90;;;;;;4991087;28;20528;-56
2022/08/04 04:14:14;;;;;;;12.23;6.20;;;17.80;99.90;;;;;;4991772;28;20148;-56
2022/08/04 04:17:07;;;;;;;9.50;5.00;;;19.40;99.90;;;;;;5011529;28;20044;-56
2022/08/04 04:19:58;;;;;;;8.27;4.97;;;17.60;99.90;;;;;;5073611;28;20144;-56
2022/08/04 04:22:43;;;;;;;8.95;5.20;;;17.60;99.90;;;;;;5074765;28;20051;-56
2022/08/04 04:25:26;;;;;;;15.45;5.55;;;17.70;99.90;;;;;;5074253;28;20036;-60
2022/08/04 04:28:43;;;;;;;8.07;4.93;;;17.60;99.90;;;;;;5074160;28;20071;-58
2022/08/04 04:31:23;;;;;;;12.60;5.60;;;17.80;99.90;;;;;;5073919;28;20051;-57
2022/08/04 04:34:04;;;;;;;9.80;5.45;;;17.70;99.90;;;;;;5073229;28;20031;-57
2022/08/04 04:37:08;;;;;;;8.98;4.90;;;17.80;99.90;;;;;;5074576;28;20040;-57
2022/08/04 04:39:45;;;;;;;14.77;5.32;;;17.90;99.90;;;;;;5049900;28;20037;-58
2022/08/04 04:42:33;;;;;;;13.32;5.43;;;18.90;99.90;;;;;;5050811;28;20163;-58
2022/08/04 04:45:19;;;;;;;14.38;6.90;;;18.10;99.90;;;;;;5050751;28;20127;-58
2022/08/04 04:48:16;;;;;;;15.90;6.30;;;18.10;99.90;;;;;;5050557;28;20079;-57
2022/08/04 04:51:00;;;;;;;14.75;7.10;;;18.30;99.90;;;;;;5050668;28;20051;-57
2022/08/04 04:53:57;;;;;;;13.18;6.25;;;18.30;99.90;;;;;;5050975;28;20044;-57
2022/08/04 04:57:13;;;;;;;9.77;6.00;;;18.40;99.90;;;;;;4991746;28;20200;-57
2022/08/04 04:59:58;;;;;;;14.63;6.18;;;18.50;99.90;;;;;;4993062;28;20046;-58
2022/08/04 05:02:51;;;;;;;9.60;5.60;;;18.60;99.90;;;;;;4991874;28;20467;-58
2022/08/04 05:05:29;;;;;;;12.35;6.07;;;18.50;99.90;;;;;;4991804;28;20037;-57
2022/08/04 05:08:20;;;;;;;11.45;6.05;;;18.50;99.90;;;;;;4993658;28;20049;-57
2022/08/04 05:11:24;;;;;;;13.47;5.87;;;18.60;99.90;;;;;;4994147;28;20125;-58
2022/08/04 05:13:51;;;;;;;13.48;5.82;;;18.80;99.90;;;;;;4992125;28;20346;-58
2022/08/04 05:16:23;;;;;;;11.95;5.65;;;18.90;99.90;;;;;;4991057;28;20092;-58
2022/08/04 05:19:02;;;;;;;20.00;8.00;;;19.20;99.90;;;;;;4990741;28;20084;-57
2022/08/04 05:21:47;;;;;;;12.82;5.65;;;19.00;99.90;;;;;;4991784;28;20050;-58
2022/08/04 05:24:17;;;;;;;10.77;5.88;;;19.30;99.90;;;;;;4991886;28;20148;-58
2022/08/04 05:26:49;;;;;;;13.45;6.18;;;19.50;99.90;;;;;;4973954;28;20070;-58
2022/08/04 05:29:32;;;;;;;17.30;6.50;;;19.30;99.90;;;;;;4990861;28;20050;-58
2022/08/04 05:32:04;;;;;;;18.00;6.80;;;19.60;99.90;;;;;;4993225;28;20064;-58
2022/08/04 05:34:41;;;;;;;13.88;6.38;;;19.60;99.90;;;;;;5018374;28;20052;-58
2022/08/04 05:37:13;;;;;;;10.48;6.40;;;19.80;99.90;;;;;;5077894;28;20040;-57
2022/08/04 05:39:44;;;;;;;;;;;20.10;99.90;;;;;;5075611;28;20097;-57
2022/08/04 05:42:13;;;;;;;15.20;6.18;;;19.80;99.90;;;;;;5075981;28;20272;-57
2022/08/04 05:44:39;;;;;;;10.55;6.22;;;19.90;99.90;;;;;;5076524;28;20039;-57
2022/08/04 05:47:07;;;;;;;14.18;6.32;;;20.00;99.90;;;;;;5076514;28;20135;-57
2022/08/04 05:49:36;;;;;;;16.98;6.22;;;20.90;99.90;;;;;;5077438;28;20044;-56
2022/08/04 05:52:03;;;;;;;13.70;6.13;;;20.10;99.90;;;;;;5076660;28;20075;-55
2022/08/04 05:54:31;;;;;;;12.45;5.63;;;20.40;99.90;;;;;;5078205;28;20051;-56
2022/08/04 05:56:58;;;;;;;13.65;6.50;;;20.90;99.90;;;;;;5078152;28;20044;-57
2022/08/04 05:59:25;;;;;;;12.82;5.93;;;20.80;99.90;;;;;;5077262;28;20039;-57
2022/08/04 06:01:54;;;;;;;16.73;5.97;;;21.20;99.90;;;;;;5078285;28;20036;-55
2022/08/04 06:04:23;;;;;;;12.68;6.72;;;21.20;99.90;;;;;;5077391;28;20094;-57
2022/08/04 06:06:51;;;;;;;11.60;6.35;;;21.60;99.90;;;;;;5077995;28;20032;-57
2022/08/04 06:09:16;;;;;;;13.15;6.22;;;21.70;99.90;;;;;;5077117;28;21070;-57
2022/08/04 06:11:43;;;;;;;13.82;6.53;;;22.00;99.90;;;;;;5078473;28;20499;-57
2022/08/04 06:14:13;;;;;;;12.38;6.32;;;22.00;99.90;;;;;;5077032;28;20040;-58
2022/08/04 06:16:43;;;;;;;14.98;6.53;;;22.60;98.90;;;;;;5077539;28;20162;-57
2022/08/04 06:19:11;;;;;;;12.43;5.63;;;22.80;97.50;;;;;;5077302;28;20048;-58
2022/08/04 06:21:42;;;;;;;14.00;6.55;;;23.00;98.50;;;;;;5076509;28;20046;-59
2022/08/04 06:24:17;;;;;;;12.63;5.10;;;23.10;97.60;;;;;;5077631;28;20040;-58
2022/08/04 06:26:46;;;;;;;13.30;5.80;;;23.20;96.30;;;;;;5077389;28;20032;-58
2022/08/04 06:29:25;;;;;;;15.98;5.82;;;23.50;95.20;;;;;;5077827;28;20044;-57
2022/08/04 06:31:58;;;;;;;9.13;5.03;;;24.90;93.10;;;;;;5077239;28;20068;-57
2022/08/04 06:34:30;;;;;;;13.57;5.47;;;23.30;91.70;;;;;;5076222;28;20555;-57
2022/08/04 06:36:58;;;;;;;10.35;5.57;;;23.20;89.60;;;;;;5077145;28;20039;-57
2022/08/04 06:39:26;;;;;;;15.57;5.93;;;23.30;86.70;;;;;;5076202;28;20725;-56
2022/08/04 06:41:53;;;;;;;18.75;5.65;;;23.40;86.70;;;;;;5075981;28;20106;-57
2022/08/04 06:44:20;;;;;;;9.93;5.13;;;23.30;87.90;;;;;;5075128;28;20577;-57
2022/08/04 06:46:47;;;;;;;12.75;5.30;;;23.40;87.90;;;;;;5074853;28;20039;-57
2022/08/04 06:49:13;;;;;;;14.10;5.80;;;23.40;85.20;;;;;;5076540;28;21092;-57
2022/08/04 06:51:40;;;;;;;12.82;5.82;;;23.60;89.40;;;;;;5076351;28;20071;-57
2022/08/04 06:54:06;;;;;;;11.48;5.47;;;23.60;90.20;;;;;;5077054;28;20114;-57
2022/08/04 06:56:34;;;;;;;12.50;6.53;;;23.90;90.20;;;;;;5076790;28;20067;-57
2022/08/04 06:59:01;;;;;;;14.43;6.03;;;24.00;89.70;;;;;;5075976;28;20058;-57
2022/08/04 07:01:29;;;;;;;16.95;5.80;;;23.90;87.20;;;;;;5074646;28;20032;-57
2022/08/04 07:03:55;;;;;;;11.57;5.05;;;23.90;84.30;;;;;;5075072;28;20532;-57
2022/08/04 07:06:24;;;;;;;11.70;6.13;;;24.10;83.40;;;;;;5075533;28;20067;-57
2022/08/04 07:08:53;;;;;;;14.55;5.43;;;24.00;83.10;;;;;;5076254;28;20060;-57
2022/08/04 07:11:20;;;;;;;10.85;5.65;;;24.30;84.70;;;;;;5075595;28;20503;-58
2022/08/04 07:13:48;;;;;;;13.32;4.95;;;24.30;84.90;;;;;;5075927;28;20113;-58
2022/08/04 07:16:15;;;;;;;13.40;5.30;;;24.80;72.10;;;;;;5076075;28;20044;-57
2022/08/04 07:18:41;;;;;;;12.10;4.82;;;24.70;62.10;;;;;;5090584;28;20600;-58
2022/08/04 07:21:07;;;;;;;10.50;4.75;;;24.90;64.70;;;;;;5076287;28;20036;-58
2022/08/04 07:23:33;;;;;;;13.68;5.28;;;25.70;54.20;;;;;;5076354;28;20124;-58
2022/08/04 07:25:59;;;;;;;12.10;4.65;;;26.20;30.00;;;;;;5074479;28;20060;-58
2022/08/04 07:28:27;;;;;;;10.95;5.03;;;26.90;15.80;;;;;;5076220;28;20079;-58
2022/08/04 07:30:54;;;;;;;12.88;5.70;;;27.00;1.00;;;;;;5076890;28;20051;-58
2022/08/04 07:33:21;;;;;;;12.55;5.25;;;27.50;1.00;;;;;;5075847;28;20044;-58
2022/08/04 07:35:50;;;;;;;11.20;5.40;;;27.40;99.90;;;;;;5075666;28;20043;-58
2022/08/04 07:38:16;;;;;;;11.77;4.70;;;27.70;99.90;;;;;;5075682;28;20523;-58
2022/08/04 07:40:42;;;;;;;10.40;5.32;;;27.70;99.90;;;;;;5075951;28;20059;-58
2022/08/04 07:43:08;;;;;;;12.75;5.38;;;27.20;99.90;;;;;;5074774;28;20091;-58
2022/08/04 07:45:35;;;;;;;11.38;4.80;;;27.30;99.90;;;;;;5073613;28;20159;-58
2022/08/04 07:48:03;;;;;;;8.75;5.00;;;27.40;99.90;;;;;;5074381;28;20574;-58
2022/08/04 07:50:29;;;;;;;12.85;5.07;;;27.10;99.90;;;;;;5075392;28;20055;-58
2022/08/04 07:52:56;;;;;;;12.32;5.75;;;26.90;99.90;;;;;;5073305;28;20101;-58
2022/08/04 07:55:22;;;;;;;11.68;4.90;;;27.10;99.90;;;;;;5074590;28;20162;-58
2022/08/04 07:57:48;;;;;;;12.18;4.90;;;27.00;99.90;;;;;;5075290;28;20032;-58
2022/08/04 08:00:16;;;;;;;10.63;4.50;;;28.20;99.90;;;;;;5074709;28;20599;-58
2022/08/04 08:02:44;;;;;;;12.20;4.70;;;27.00;99.90;;;;;;5074859;28;20968;-58
2022/08/04 08:05:13;;;;;;;15.18;5.55;;;27.00;99.90;;;;;;5075719;28;20039;-58
2022/08/04 08:07:39;;;;;;;8.15;4.70;;;26.90;99.90;;;;;;5074997;28;20036;-58
2022/08/04 08:10:10;;;;;;;10.82;3.97;;;26.90;99.90;;;;;;5074448;28;20555;-58
2022/08/04 08:12:37;;;;;;;10.07;3.90;;;26.70;99.90;;;;;;5072433;28;20598;-58
2022/08/04 08:15:05;;;;;;;15.18;4.85;;;26.70;99.90;;;;;;5074642;28;20043;-58
2022/08/04 08:17:30;;;;;;;12.60;4.65;;;26.60;99.90;;;;;;5074106;28;20028;-58
2022/08/04 08:19:56;;;;;;;9.68;4.38;;;26.40;99.90;;;;;;5089364;28;20055;-59
2022/08/04 08:22:24;;;;;;;10.60;4.18;;;26.00;99.90;;;;;;5075408;28;20737;-58
2022/08/04 08:24:50;;;;;;;7.68;3.92;;;26.10;99.90;;;;;;5074994;28;20496;-58
2022/08/04 08:27:15;;;;;;;8.80;4.97;;;26.10;99.90;;;;;;5075015;28;20051;-58
2022/08/04 08:29:43;;;;;;;12.73;4.95;;;26.00;99.90;;;;;;5074745;28;20119;-58
2022/08/04 08:32:14;;;;;;;10.05;4.80;;;25.80;99.90;;;;;;5089804;28;20206;-58
2022/08/04 08:34:41;;;;;;;10.75;4.53;;;25.90;99.90;;;;;;5073555;28;20569;-58
2022/08/04 08:37:18;;;;;;;13.07;5.03;;;27.30;99.90;;;;;;5074344;28;20427;-58
2022/08/04 08:39:58;;;;;;;11.93;4.75;;;25.80;99.90;;;;;;5074191;28;20335;-58
2022/08/04 08:42:48;;;;;;;9.77;4.97;;;25.70;99.90;;;;;;5074014;28;20048;-58
2022/08/04 08:45:27;;;;;;;10.32;4.40;;;26.00;99.90;;;;;;5074305;28;20093;-58
2022/08/04 08:47:55;;;;;;;9.57;4.47;;;25.70;99.90;;;;;;5075101;28;20283;-57
2022/08/04 08:50:50;;;;;;;11.00;3.75;;;25.60;99.90;;;;;;5074672;28;20035;-59
2022/08/04 08:53:50;;;;;;;9.75;4.32;;;25.90;99.90;;;;;;5074940;28;20063;-57
2022/08/04 08:56:28;;;;;;;12.25;4.50;;;25.80;99.90;;;;;;5075104;28;21227;-58
2022/08/04 08:59:41;;;;;;;7.00;3.92;;;25.70;99.90;;;;;;5073523;28;20044;-57
2022/08/04 09:02:47;;;;;;;8.18;4.35;;;25.30;99.90;;;;;;5028790;28;20053;-57
2022/08/04 09:05:39;;;;;;;17.50;3.95;;;25.50;99.90;;;;;;5028853;28;20063;-58
2022/08/04 09:08:25;;;;;;;9.43;3.83;;;25.50;99.90;;;;;;5027198;28;20041;-58
2022/08/04 09:11:01;;;;;;;12.02;3.42;;;25.80;99.90;;;;;;5028822;28;20573;-58
2022/08/04 09:13:40;;;;;;;6.63;2.70;;;26.00;99.90;;;;;;5028668;28;20056;-58
2022/08/04 09:16:33;;;;;;;8.88;2.72;;;27.00;99.90;;;;;;5027210;28;20285;-58
2022/08/04 09:19:16;;;;;;;6.68;2.25;;;27.30;99.90;;;;;;5026069;28;20056;-58
2022/08/04 09:22:05;;;;;;;8.13;2.30;;;27.40;99.90;;;;;;5022886;28;20242;-58
2022/08/04 09:25:01;;;;;;;6.07;2.35;;;27.80;99.90;;;;;;5030484;28;20045;-58
2022/08/04 09:27:34;;;;;;;11.20;2.33;;;28.10;99.90;;;;;;5026521;28;20041;-58
2022/08/04 09:30:11;;;;;;;11.52;2.50;;;28.40;99.90;;;;;;5013439;28;20076;-58
2022/08/04 09:33:14;;;;;;;10.77;2.50;;;28.60;99.90;;;;;;5027154;28;20049;-58
2022/08/04 09:36:14;;;;;;;6.18;2.20;;;28.50;99.90;;;;;;4952230;28;20215;-58
2022/08/04 09:39:03;;;;;;;8.52;2.20;;;28.20;99.90;;;;;;4981863;28;20128;-58
2022/08/04 09:41:55;;;;;;;6.20;2.00;;;27.90;99.90;;;;;;4952228;28;20078;-58
2022/08/04 09:44:42;;;;;;;5.50;1.92;;;27.80;99.90;;;;;;4951951;28;20074;-58
2022/08/04 09:47:28;;;;;;;9.35;2.00;;;27.90;99.90;;;;;;4952187;28;20089;-58
2022/08/04 09:50:12;;;;;;;10.55;1.40;;;27.90;99.90;;;;;;4951698;28;20054;-58
2022/08/04 09:52:54;;;;;;;10.98;1.70;;;28.00;99.90;;;;;;4951222;28;20086;-58
2022/08/04 09:55:38;;;;;;;9.38;1.90;;;27.60;99.90;;;;;;4952934;28;20051;-58
2022/08/04 09:58:08;;;;;;;9.55;1.73;;;27.40;99.90;;;;;;4951541;28;20043;-57
2022/08/04 10:00:40;;;;;;;7.47;1.63;;;27.40;99.90;;;;;;4951496;28;20331;-58
2022/08/04 10:03:10;;;;;;;7.05;1.67;;;27.40;99.90;;;;;;4952460;28;20042;-58
2022/08/04 10:06:04;;;;;;;7.10;1.80;;;27.40;99.90;;;;;;4952278;28;20054;-57
2022/08/04 10:08:43;;;;;;;8.15;1.88;;;27.60;99.90;;;;;;4951473;28;20054;-58
2022/08/04 10:11:20;;;;;;;9.48;2.50;;;27.80;99.90;;;;;;4952104;28;20579;-58
2022/08/04 10:14:12;;;;;;;9.70;2.05;;;28.00;99.90;;;;;;5009970;28;20492;-58
2022/08/04 10:16:57;;;;;;;5.90;2.00;;;28.20;99.90;;;;;;5009725;28;20289;-58
2022/08/04 10:19:30;;;;;;;9.93;2.15;;;28.30;99.90;;;;;;5066878;28;20665;-57
2022/08/04 10:22:14;;;;;;;11.88;2.50;;;27.90;99.90;;;;;;5076413;28;20162;-59
2022/08/04 10:24:55;;;;;;;10.63;2.80;;;28.20;99.90;;;;;;5076859;28;20505;-58
2022/08/04 10:27:24;;;;;;;12.18;2.95;;;28.10;99.90;;;;;;5077739;28;20043;-58
2022/08/04 10:29:56;;;;;;;11.05;2.90;;;27.90;99.90;;;;;;5078523;28;20122;-58
2022/08/04 10:32:43;;;;;;;8.35;2.42;;;28.30;99.90;;;;;;5077584;28;20070;-59
2022/08/04 10:35:12;;;;;;;10.25;2.35;;;28.20;99.90;;;;;;5076296;28;20067;-58
2022/08/04 10:37:55;;;;;;;12.35;2.70;;;28.30;99.90;;;;;;5076051;28;20100;-58
2022/08/04 10:40:48;;;;;;;8.73;2.10;;;28.60;99.90;;;;;;5075920;28;20698;-59
2022/08/04 10:43:34;;;;;;;7.90;1.80;;;28.60;99.90;;;;;;5075339;28;20864;-58
2022/08/04 10:46:06;;;;;;;4.05;1.55;;;28.70;99.90;;;;;;5076674;28;20060;-58
2022/08/04 10:48:58;;;;;;;6.45;1.17;;;28.40;99.90;;;;;;5075772;28;20048;-58
2022/08/04 10:51:27;;;;;;;5.53;1.17;;;28.30;99.90;;;;;;5075888;28;20245;-58
2022/08/04 10:54:01;;;;;;;7.13;1.20;;;28.20;99.90;;;;;;5076201;28;20066;-57
2022/08/04 10:56:37;;;;;;;6.85;1.75;;;28.10;99.90;;;;;;5076362;28;20032;-58
2022/08/04 10:59:11;;;;;;;5.95;1.48;;;27.80;99.90;;;;;;5076302;28;20929;-58
2022/08/04 11:01:41;;;;;;;4.68;1.15;;;27.80;99.90;;;;;;5074969;28;20041;-57
2022/08/04 11:04:45;;;;;;;6.25;1.42;;;27.60;99.90;;;;;;5074974;28;20052;-58
2022/08/04 11:07:12;;;;;;;6.03;1.30;;;27.50;99.90;;;;;;5014299;28;20140;-58
2022/08/04 11:09:41;;;;;;;2.33;0.93;;;27.80;99.90;;;;;;5012809;28;20140;-58
2022/08/04 11:12:16;;;;;;;7.25;1.77;;;27.70;99.90;;;;;;5013363;28;20437;-58
2022/08/04 11:15:00;;;;;;;2.85;0.95;;;28.10;99.90;;;;;;5013148;28;20049;-58
2022/08/04 11:17:34;;;;;;;5.97;1.20;;;27.90;99.90;;;;;;5013883;28;20546;-58
2022/08/04 11:20:12;;;;;;;4.18;1.00;;;27.60;99.90;;;;;;4996564;28;20063;-58
2022/08/04 11:22:49;;;;;;;3.13;0.98;;;27.10;99.90;;;;;;5013014;28;20033;-58
2022/08/04 11:25:21;;;;;;;4.72;1.02;;;27.50;99.90;;;;;;5014316;28;20057;-57
2022/08/04 11:28:11;;;;;;;2.38;0.80;;;27.40;99.90;;;;;;5013501;28;20065;-58
2022/08/04 11:30:55;;;;;;;6.28;2.03;;;27.40;99.90;;;;;;4996045;28;20140;-58
2022/08/04 11:34:15;;;;;;;4.70;1.52;;;27.40;99.90;;;;;;5013497;28;20754;-58
2022/08/04 11:37:10;;;;;;;4.63;1.20;;;27.00;99.90;;;;;;4931999;29;20070;-58
2022/08/04 11:39:43;;;;;;;4.75;1.20;;;27.00;99.90;;;;;;4914955;29;20077;-58
2022/08/04 11:42:32;;;;;;;5.57;1.20;;;27.30;99.90;;;;;;4932390;28;20054;-58
2022/08/04 11:45:03;;;;;;;4.65;1.50;;;27.10;99.90;;;;;;4984905;28;20451;-58
2022/08/04 11:47:51;;;;;;;4.20;1.10;;;27.20;99.90;;;;;;4993224;28;20510;-59
2022/08/04 11:50:40;;;;;;;3.45;1.13;;;27.20;99.90;;;;;;4991304;28;20340;-58
2022/08/04 11:53:07;;;;;;;4.05;1.30;;;27.10;99.90;;;;;;4993423;28;20870;-59
2022/08/04 11:55:33;;;;;;;6.40;1.00;;;26.90;99.90;;;;;;4994312;28;20042;-58
2022/08/04 11:57:59;;;;;;;3.10;0.75;;;27.20;99.90;;;;;;4973833;28;20064;-59
2022/08/04 12:00:28;;;;;;;4.07;1.00;;;26.80;99.90;;;;;;4993230;28;20503;-58
2022/08/04 12:03:22;;;;;;;5.10;1.05;;;26.60;99.90;;;;;;4992912;28;20057;-58
2022/08/04 12:06:35;;;;;;;3.30;0.88;;;26.80;99.90;;;;;;4991705;28;20125;-57
2022/08/04 12:09:13;;;;;;;3.13;0.90;;;26.70;99.90;;;;;;4992897;28;20137;-58
2022/08/04 12:12:32;;;;;;;3.72;1.20;;;26.80;99.90;;;;;;5074384;28;20044;-58
2022/08/04 12:15:12;;;;;;;3.05;0.88;;;26.40;99.90;;;;;;5050935;28;20080;-58
2022/08/04 12:17:45;;;;;;;3.47;1.15;;;26.40;99.90;;;;;;5052477;28;20101;-57
2022/08/04 12:20:17;;;;;;;3.35;1.00;;;26.20;99.90;;;;;;5051097;28;20056;-58
2022/08/04 12:22:48;;;;;;;4.78;0.98;;;26.20;99.90;;;;;;5051426;28;20040;-58
2022/08/04 12:25:28;;;;;;;3.13;1.02;;;26.00;99.90;;;;;;5052216;28;20105;-57
2022/08/04 12:28:03;;;;;;;3.55;1.00;;;26.10;99.90;;;;;;5051121;28;20066;-57
2022/08/04 12:30:35;;;;;;;4.38;0.88;;;25.70;99.90;;;;;;5051020;28;20556;-58
2022/08/04 12:33:21;;;;;;;3.88;1.05;;;25.60;99.90;;;;;;5052078;28;20122;-57
2022/08/04 12:36:00;;;;;;;5.70;1.30;;;26.00;99.90;;;;;;5051182;28;20150;-57
2022/08/04 12:38:31;;;;;;;2.17;0.88;;;25.90;99.90;;;;;;5050766;28;20075;-57
2022/08/04 12:40:58;;;;;;;4.00;0.90;;;25.90;99.90;;;;;;5050990;28;20065;-58
2022/08/04 12:43:46;;;;;;;3.60;0.90;;;26.20;99.90;;;;;;5050982;28;20040;-57
2022/08/04 12:46:22;;;;;;;3.30;0.90;;;26.60;99.90;;;;;;5066832;28;20048;-58
2022/08/04 12:48:51;;;;;;;6.18;1.35;;;26.80;99.90;;;;;;5075001;28;20388;-58
2022/08/04 12:51:19;;;;;;;3.08;1.00;;;27.20;99.90;;;;;;5074990;28;20404;-58
2022/08/04 12:53:45;;;;;;;3.53;1.13;;;27.00;99.90;;;;;;5073816;28;20038;-58
2022/08/04 12:56:13;;;;;;;5.20;1.02;;;27.00;99.90;;;;;;5074855;28;20072;-58
2022/08/04 12:58:42;;;;;;;3.28;0.90;;;27.30;99.90;;;;;;5074813;28;20037;-58
2022/08/04 13:01:12;;;;;;;5.05;1.10;;;27.20;99.90;;;;;;5073517;28;20673;-57
2022/08/04 13:03:46;;;;;;;2.83;0.95;;;27.40;99.90;;;;;;5074751;28;21240;-58
2022/08/04 13:06:14;;;;;;;4.72;1.10;;;27.60;99.90;;;;;;5074703;28;20492;-58
2022/08/04 13:08:43;;;;;;;5.10;1.25;;;27.50;99.90;;;;;;5074196;28;21068;-57
2022/08/04 13:11:13;;;;;;;3.35;0.90;;;27.40;99.90;;;;;;5075428;28;20177;-57
2022/08/04 13:13:42;;;;;;;6.55;1.00;;;27.40;99.90;;;;;;5074471;28;20044;-58
2022/08/04 13:16:10;;;;;;;4.07;1.20;;;28.20;99.90;;;;;;5073013;28;20438;-58
2022/08/04 13:18:38;;;;;;;3.88;1.00;;;27.60;99.90;;;;;;5072919;28;20684;-58
2022/08/04 13:21:12;;;;;;;4.05;1.20;;;27.70;99.90;;;;;;5073148;28;20101;-57
2022/08/04 13:23:41;;;;;;;5.53;0.90;;;27.80;99.90;;;;;;5073271;28;20043;-57
2022/08/04 13:26:08;;;;;;;3.08;0.90;;;27.80;99.90;;;;;;5073479;28;20043;-58
2022/08/04 13:28:39;;;;;;;5.05;0.73;;;27.90;99.90;;;;;;5073571;28;20367;-57
2022/08/04 13:31:09;;;;;;;3.33;0.80;;;27.60;99.90;;;;;;5072654;28;20032;-58
2022/08/04 13:33:37;;;;;;;2.85;0.82;;;27.80;99.90;;;;;;5072118;28;20059;-58
2022/08/04 13:36:06;;;;;;;3.38;0.90;;;28.10;99.90;;;;;;5073098;28;20044;-58